sensor_id;sensor_type;location;lat;lon;timestamp;temperature;humidity
9861;DHT22;4969;52.304;4.968;2022-07-23T00:01:26;16.31;75.53
9861;DHT22;4969;52.304;4.968;2022-07-23T00:03:54;16.24;75.41
9861;DHT22;4969;52.304;4.968;2022-07-23T00:06:20;16.24;75.75
9861;DHT22;4969;52.304;4.968;2022-07-23T00:08:47;16.26;75.76
9861;DHT22;4969;52.304;4.968;2022-07-23T00:11:18;16.20;75.79
9861;DHT22;4969;52.304;4.968;2022-07-23T00:13:46;16.24;75.66
9861;DHT22;4969;52.304;4.968;2022-07-23T00:16:12;16.21;75.72
9861;DHT22;4969;52.304;4.968;2022-07-23T00:18:39;16.17;75.70
9861;DHT22;4969;52.304;4.968;2022-07-23T00:21:06;16.12;75.89
9861;DHT22;4969;52.304;4.968;2022-07-23T00:23:33;16.09;75.73
9861;DHT22;4969;52.304;4.968;2022-07-23T00:25:59;16.03;76.10
9861;DHT22;4969;52.304;4.968;2022-07-23T00:28:26;16.02;75.99
9861;DHT22;4969;52.304;4.968;2022-07-23T00:30:54;15.96;76.09
9861;DHT22;4969;52.304;4.968;2022-07-23T00:33:20;16.00;76.16
9861;DHT22;4969;52.304;4.968;2022-07-23T00:35:47;15.97;76.22
9861;DHT22;4969;52.304;4.968;2022-07-23T00:38:13;15.94;76.45
9861;DHT22;4969;52.304;4.968;2022-07-23T00:40:40;15.94;76.69
9861;DHT22;4969;52.304;4.968;2022-07-23T00:43:07;15.87;76.62
9861;DHT22;4969;52.304;4.968;2022-07-23T00:45:34;15.81;76.34
9861;DHT22;4969;52.304;4.968;2022-07-23T00:48:02;15.75;76.89
9861;DHT22;4969;52.304;4.968;2022-07-23T00:50:29;15.71;77.09
9861;DHT22;4969;52.304;4.968;2022-07-23T00:52:56;15.68;77.14
9861;DHT22;4969;52.304;4.968;2022-07-23T00:55:23;15.68;77.42
9861;DHT22;4969;52.304;4.968;2022-07-23T00:57:50;15.64;77.40
9861;DHT22;4969;52.304;4.968;2022-07-23T01:00:16;15.61;77.09
9861;DHT22;4969;52.304;4.968;2022-07-23T01:02:43;15.61;77.60
9861;DHT22;4969;52.304;4.968;2022-07-23T01:05:11;15.58;77.53
9861;DHT22;4969;52.304;4.968;2022-07-23T01:07:38;15.59;77.61
9861;DHT22;4969;52.304;4.968;2022-07-23T01:10:05;15.57;77.76
9861;DHT22;4969;52.304;4.968;2022-07-23T01:12:52;15.58;78.09
9861;DHT22;4969;52.304;4.968;2022-07-23T01:15:19;15.54;77.82
9861;DHT22;4969;52.304;4.968;2022-07-23T01:17:45;15.47;77.72
9861;DHT22;4969;52.304;4.968;2022-07-23T01:20:13;15.43;77.97
9861;DHT22;4969;52.304;4.968;2022-07-23T01:22:41;15.37;77.94
9861;DHT22;4969;52.304;4.968;2022-07-23T01:25:08;15.38;78.12
9861;DHT22;4969;52.304;4.968;2022-07-23T01:27:35;15.34;78.10
9861;DHT22;4969;52.304;4.968;2022-07-23T01:30:03;15.33;78.44
9861;DHT22;4969;52.304;4.968;2022-07-23T01:32:30;15.31;78.42
9861;DHT22;4969;52.304;4.968;2022-07-23T01:34:57;15.27;78.32
9861;DHT22;4969;52.304;4.968;2022-07-23T01:37:23;15.26;78.17
9861;DHT22;4969;52.304;4.968;2022-07-23T01:39:51;15.21;78.20
9861;DHT22;4969;52.304;4.968;2022-07-23T01:42:18;15.17;78.50
9861;DHT22;4969;52.304;4.968;2022-07-23T01:44:44;15.16;78.52
9861;DHT22;4969;52.304;4.968;2022-07-23T01:47:11;15.20;78.93
9861;DHT22;4969;52.304;4.968;2022-07-23T01:49:37;15.17;78.49
9861;DHT22;4969;52.304;4.968;2022-07-23T01:52:04;15.16;78.86
9861;DHT22;4969;52.304;4.968;2022-07-23T01:54:36;15.17;78.85
9861;DHT22;4969;52.304;4.968;2022-07-23T01:57:04;15.11;78.77
9861;DHT22;4969;52.304;4.968;2022-07-23T01:59:31;15.06;78.57
9861;DHT22;4969;52.304;4.968;2022-07-23T02:01:57;15.07;78.63
9861;DHT22;4969;52.304;4.968;2022-07-23T02:04:25;15.02;79.01
9861;DHT22;4969;52.304;4.968;2022-07-23T02:06:52;15.03;79.28
9861;DHT22;4969;52.304;4.968;2022-07-23T02:09:19;14.90;79.75
9861;DHT22;4969;52.304;4.968;2022-07-23T02:11:46;14.81;80.30
9861;DHT22;4969;52.304;4.968;2022-07-23T02:14:14;14.72;80.12
9861;DHT22;4969;52.304;4.968;2022-07-23T02:16:40;14.60;80.46
9861;DHT22;4969;52.304;4.968;2022-07-23T02:19:07;14.57;80.88
9861;DHT22;4969;52.304;4.968;2022-07-23T02:21:33;14.50;80.84
9861;DHT22;4969;52.304;4.968;2022-07-23T02:24:00;14.45;81.04
9861;DHT22;4969;52.304;4.968;2022-07-23T02:26:27;14.50;81.09
9861;DHT22;4969;52.304;4.968;2022-07-23T02:28:54;14.68;80.76
9861;DHT22;4969;52.304;4.968;2022-07-23T02:31:21;14.82;80.25
9861;DHT22;4969;52.304;4.968;2022-07-23T02:33:48;14.95;80.24
9861;DHT22;4969;52.304;4.968;2022-07-23T02:36:14;15.07;79.96
9861;DHT22;4969;52.304;4.968;2022-07-23T02:38:41;15.16;79.81
9861;DHT22;4969;52.304;4.968;2022-07-23T02:41:08;15.26;79.34
9861;DHT22;4969;52.304;4.968;2022-07-23T02:43:34;15.31;79.14
9861;DHT22;4969;52.304;4.968;2022-07-23T02:46:01;15.33;79.38
9861;DHT22;4969;52.304;4.968;2022-07-23T02:48:29;15.38;79.37
9861;DHT22;4969;52.304;4.968;2022-07-23T02:50:55;15.45;79.42
9861;DHT22;4969;52.304;4.968;2022-07-23T02:53:22;15.51;79.11
9861;DHT22;4969;52.304;4.968;2022-07-23T02:55:48;15.53;78.79
9861;DHT22;4969;52.304;4.968;2022-07-23T02:58:15;15.55;79.07
9861;DHT22;4969;52.304;4.968;2022-07-23T03:00:42;15.61;79.04
9861;DHT22;4969;52.304;4.968;2022-07-23T03:03:08;15.66;78.93
9861;DHT22;4969;52.304;4.968;2022-07-23T03:05:36;15.71;78.65
9861;DHT22;4969;52.304;4.968;2022-07-23T03:08:03;15.66;78.21
9861;DHT22;4969;52.304;4.968;2022-07-23T03:10:30;15.69;78.00
9861;DHT22;4969;52.304;4.968;2022-07-23T03:12:56;15.75;77.70
9861;DHT22;4969;52.304;4.968;2022-07-23T03:15:23;15.66;77.42
9861;DHT22;4969;52.304;4.968;2022-07-23T03:17:49;15.66;77.54
9861;DHT22;4969;52.304;4.968;2022-07-23T03:20:16;15.68;77.53
9861;DHT22;4969;52.304;4.968;2022-07-23T03:22:44;15.73;77.06
9861;DHT22;4969;52.304;4.968;2022-07-23T03:25:10;15.73;76.74
9861;DHT22;4969;52.304;4.968;2022-07-23T03:27:37;15.78;76.66
9861;DHT22;4969;52.304;4.968;2022-07-23T03:30:04;15.75;76.35
9861;DHT22;4969;52.304;4.968;2022-07-23T03:32:31;15.79;76.21
9861;DHT22;4969;52.304;4.968;2022-07-23T03:34:57;15.79;76.17
9861;DHT22;4969;52.304;4.968;2022-07-23T03:37:24;15.82;76.04
9861;DHT22;4969;52.304;4.968;2022-07-23T03:39:52;15.75;75.82
9861;DHT22;4969;52.304;4.968;2022-07-23T03:42:19;15.71;76.00
9861;DHT22;4969;52.304;4.968;2022-07-23T03:44:45;15.72;76.17
9861;DHT22;4969;52.304;4.968;2022-07-23T03:47:12;15.68;76.71
9861;DHT22;4969;52.304;4.968;2022-07-23T03:49:38;15.73;76.36
9861;DHT22;4969;52.304;4.968;2022-07-23T03:52:05;15.73;76.15
9861;DHT22;4969;52.304;4.968;2022-07-23T03:54:32;15.68;76.29
9861;DHT22;4969;52.304;4.968;2022-07-23T03:56:59;15.64;76.36
9861;DHT22;4969;52.304;4.968;2022-07-23T03:59:26;15.65;76.31
9861;DHT22;4969;52.304;4.968;2022-07-23T04:01:52;15.62;76.19
9861;DHT22;4969;52.304;4.968;2022-07-23T04:04:19;15.58;76.46
9861;DHT22;4969;52.304;4.968;2022-07-23T04:06:46;15.54;76.40
9861;DHT22;4969;52.304;4.968;2022-07-23T04:09:12;15.51;76.77
9861;DHT22;4969;52.304;4.968;2022-07-23T04:11:39;15.51;77.09
9861;DHT22;4969;52.304;4.968;2022-07-23T04:14:07;15.58;77.37
9861;DHT22;4969;52.304;4.968;2022-07-23T04:16:33;15.71;77.13
9861;DHT22;4969;52.304;4.968;2022-07-23T04:19:00;15.73;77.00
9861;DHT22;4969;52.304;4.968;2022-07-23T04:21:26;15.75;76.90
9861;DHT22;4969;52.304;4.968;2022-07-23T04:23:53;15.72;77.12
9861;DHT22;4969;52.304;4.968;2022-07-23T04:26:19;15.71;77.24
9861;DHT22;4969;52.304;4.968;2022-07-23T04:28:46;15.75;77.25
9861;DHT22;4969;52.304;4.968;2022-07-23T04:31:14;15.82;76.74
9861;DHT22;4969;52.304;4.968;2022-07-23T04:33:41;15.79;76.94
9861;DHT22;4969;52.304;4.968;2022-07-23T04:36:07;15.89;76.81
9861;DHT22;4969;52.304;4.968;2022-07-23T04:38:34;16.12;76.78
9861;DHT22;4969;52.304;4.968;2022-07-23T04:41:00;16.51;75.94
9861;DHT22;4969;52.304;4.968;2022-07-23T04:43:27;16.75;75.27
9861;DHT22;4969;52.304;4.968;2022-07-23T04:45:54;16.93;74.92
9861;DHT22;4969;52.304;4.968;2022-07-23T04:48:22;17.07;74.29
9861;DHT22;4969;52.304;4.968;2022-07-23T04:50:48;17.21;73.93
9861;DHT22;4969;52.304;4.968;2022-07-23T04:53:15;17.19;73.80
9861;DHT22;4969;52.304;4.968;2022-07-23T04:55:43;17.23;73.61
9861;DHT22;4969;52.304;4.968;2022-07-23T04:58:10;17.23;73.19
9861;DHT22;4969;52.304;4.968;2022-07-23T05:00:36;17.17;72.35
9861;DHT22;4969;52.304;4.968;2022-07-23T05:03:03;17.03;72.77
9861;DHT22;4969;52.304;4.968;2022-07-23T05:05:31;16.93;72.76
9861;DHT22;4969;52.304;4.968;2022-07-23T05:07:57;17.02;73.21
9861;DHT22;4969;52.304;4.968;2022-07-23T05:10:24;17.20;72.90
9861;DHT22;4969;52.304;4.968;2022-07-23T05:12:51;17.71;71.81
9861;DHT22;4969;52.304;4.968;2022-07-23T05:15:18;17.97;71.07
9861;DHT22;4969;52.304;4.968;2022-07-23T05:17:44;17.83;69.96
9861;DHT22;4969;52.304;4.968;2022-07-23T05:20:11;17.41;70.39
9861;DHT22;4969;52.304;4.968;2022-07-23T05:22:40;17.17;71.58
9861;DHT22;4969;52.304;4.968;2022-07-23T05:25:07;17.12;71.56
9861;DHT22;4969;52.304;4.968;2022-07-23T05:27:34;17.13;71.90
9861;DHT22;4969;52.304;4.968;2022-07-23T05:30:00;17.00;71.68
9861;DHT22;4969;52.304;4.968;2022-07-23T05:32:27;17.04;71.67
9861;DHT22;4969;52.304;4.968;2022-07-23T05:34:53;17.13;72.16
9861;DHT22;4969;52.304;4.968;2022-07-23T05:37:20;17.24;71.69
9861;DHT22;4969;52.304;4.968;2022-07-23T05:39:48;17.27;70.15
9861;DHT22;4969;52.304;4.968;2022-07-23T05:42:14;17.12;70.89
9861;DHT22;4969;52.304;4.968;2022-07-23T05:44:41;17.06;71.01
9861;DHT22;4969;52.304;4.968;2022-07-23T05:47:07;17.52;70.67
9861;DHT22;4969;52.304;4.968;2022-07-23T05:49:36;17.32;69.65
9861;DHT22;4969;52.304;4.968;2022-07-23T05:52:04;17.24;70.20
9861;DHT22;4969;52.304;4.968;2022-07-23T05:54:31;17.24;70.55
9861;DHT22;4969;52.304;4.968;2022-07-23T05:56:59;17.34;70.46
9861;DHT22;4969;52.304;4.968;2022-07-23T05:59:25;17.47;70.09
9861;DHT22;4969;52.304;4.968;2022-07-23T06:01:52;17.45;70.11
9861;DHT22;4969;52.304;4.968;2022-07-23T06:04:18;17.49;69.26
9861;DHT22;4969;52.304;4.968;2022-07-23T06:06:45;17.26;69.29
9861;DHT22;4969;52.304;4.968;2022-07-23T06:09:11;17.26;69.72
9861;DHT22;4969;52.304;4.968;2022-07-23T06:11:39;17.32;69.93
9861;DHT22;4969;52.304;4.968;2022-07-23T06:14:06;17.38;69.76
9861;DHT22;4969;52.304;4.968;2022-07-23T06:16:33;17.30;69.38
9861;DHT22;4969;52.304;4.968;2022-07-23T06:19:00;17.23;68.63
9861;DHT22;4969;52.304;4.968;2022-07-23T06:21:26;17.87;68.48
9861;DHT22;4969;52.304;4.968;2022-07-23T06:23:53;17.81;68.04
9861;DHT22;4969;52.304;4.968;2022-07-23T06:26:19;17.82;67.01
9861;DHT22;4969;52.304;4.968;2022-07-23T06:28:46;17.75;67.87
9861;DHT22;4969;52.304;4.968;2022-07-23T06:31:14;17.68;67.13
9861;DHT22;4969;52.304;4.968;2022-07-23T06:33:40;17.59;67.81
9861;DHT22;4969;52.304;4.968;2022-07-23T06:36:07;17.72;68.28
9861;DHT22;4969;52.304;4.968;2022-07-23T06:38:34;17.62;67.82
9861;DHT22;4969;52.304;4.968;2022-07-23T06:41:00;17.74;68.29
9861;DHT22;4969;52.304;4.968;2022-07-23T06:43:27;17.87;67.03
9861;DHT22;4969;52.304;4.968;2022-07-23T06:45:53;17.87;67.38
9861;DHT22;4969;52.304;4.968;2022-07-23T06:48:21;17.93;67.50
9861;DHT22;4969;52.304;4.968;2022-07-23T06:50:48;17.97;67.82
9861;DHT22;4969;52.304;4.968;2022-07-23T06:53:14;18.09;67.08
9861;DHT22;4969;52.304;4.968;2022-07-23T06:55:41;17.96;66.84
9861;DHT22;4969;52.304;4.968;2022-07-23T06:58:07;17.97;66.92
9861;DHT22;4969;52.304;4.968;2022-07-23T07:00:35;17.99;67.18
9861;DHT22;4969;52.304;4.968;2022-07-23T07:03:01;18.28;67.02
9861;DHT22;4969;52.304;4.968;2022-07-23T07:05:29;18.54;66.54
9861;DHT22;4969;52.304;4.968;2022-07-23T07:07:56;18.16;64.80
9861;DHT22;4969;52.304;4.968;2022-07-23T07:10:22;17.99;65.20
9861;DHT22;4969;52.304;4.968;2022-07-23T07:12:49;17.81;64.64
9861;DHT22;4969;52.304;4.968;2022-07-23T07:15:15;17.90;66.10
9861;DHT22;4969;52.304;4.968;2022-07-23T07:17:42;17.99;66.28
9861;DHT22;4969;52.304;4.968;2022-07-23T07:20:09;18.12;66.07
9861;DHT22;4969;52.304;4.968;2022-07-23T07:22:37;18.21;64.62
9861;DHT22;4969;52.304;4.968;2022-07-23T07:25:05;18.09;65.20
9861;DHT22;4969;52.304;4.968;2022-07-23T07:27:31;18.02;65.83
9861;DHT22;4969;52.304;4.968;2022-07-23T07:29:58;18.03;65.98
9861;DHT22;4969;52.304;4.968;2022-07-23T07:32:25;18.00;65.00
9861;DHT22;4969;52.304;4.968;2022-07-23T07:34:51;18.06;64.57
9861;DHT22;4969;52.304;4.968;2022-07-23T07:37:18;18.12;64.79
9861;DHT22;4969;52.304;4.968;2022-07-23T07:39:45;18.21;64.14
9861;DHT22;4969;52.304;4.968;2022-07-23T07:42:12;18.07;64.13
9861;DHT22;4969;52.304;4.968;2022-07-23T07:44:38;18.07;63.48
9861;DHT22;4969;52.304;4.968;2022-07-23T07:47:05;18.12;63.39
9861;DHT22;4969;52.304;4.968;2022-07-23T07:49:33;18.24;64.19
9861;DHT22;4969;52.304;4.968;2022-07-23T07:51:59;18.30;63.85
9861;DHT22;4969;52.304;4.968;2022-07-23T07:54:26;18.34;62.49
9861;DHT22;4969;52.304;4.968;2022-07-23T07:56:54;18.50;63.02
9861;DHT22;4969;52.304;4.968;2022-07-23T07:59:20;18.47;63.24
9861;DHT22;4969;52.304;4.968;2022-07-23T08:01:47;18.48;63.00
9861;DHT22;4969;52.304;4.968;2022-07-23T08:04:13;18.51;63.28
9861;DHT22;4969;52.304;4.968;2022-07-23T08:06:40;18.58;62.68
9861;DHT22;4969;52.304;4.968;2022-07-23T08:09:06;18.89;62.10
9861;DHT22;4969;52.304;4.968;2022-07-23T08:11:33;18.89;62.78
9861;DHT22;4969;52.304;4.968;2022-07-23T08:14:01;19.22;62.69
9861;DHT22;4969;52.304;4.968;2022-07-23T08:16:27;19.22;63.45
9861;DHT22;4969;52.304;4.968;2022-07-23T08:18:54;19.37;62.49
9861;DHT22;4969;52.304;4.968;2022-07-23T08:21:21;19.34;61.54
9861;DHT22;4969;52.304;4.968;2022-07-23T08:23:47;19.80;63.72
9861;DHT22;4969;52.304;4.968;2022-07-23T08:26:14;19.85;62.95
9861;DHT22;4969;52.304;4.968;2022-07-23T08:28:40;19.71;61.68
9861;DHT22;4969;52.304;4.968;2022-07-23T08:31:08;19.82;60.80
9861;DHT22;4969;52.304;4.968;2022-07-23T08:33:37;19.76;62.72
9861;DHT22;4969;52.304;4.968;2022-07-23T08:36:04;19.73;61.20
9861;DHT22;4969;52.304;4.968;2022-07-23T08:38:32;19.89;61.24
9861;DHT22;4969;52.304;4.968;2022-07-23T08:40:59;20.12;62.44
9861;DHT22;4969;52.304;4.968;2022-07-23T08:43:27;20.49;61.04
9861;DHT22;4969;52.304;4.968;2022-07-23T08:45:55;20.78;60.11
9861;DHT22;4969;52.304;4.968;2022-07-23T08:48:28;20.88;59.57
9861;DHT22;4969;52.304;4.968;2022-07-23T08:50:56;21.09;59.13
9861;DHT22;4969;52.304;4.968;2022-07-23T08:53:24;20.54;58.88
9861;DHT22;4969;52.304;4.968;2022-07-23T08:55:53;20.26;60.02
9861;DHT22;4969;52.304;4.968;2022-07-23T08:58:22;19.96;60.43
9861;DHT22;4969;52.304;4.968;2022-07-23T09:00:49;19.93;61.73
9861;DHT22;4969;52.304;4.968;2022-07-23T09:03:18;19.93;60.84
9861;DHT22;4969;52.304;4.968;2022-07-23T09:05:47;19.86;60.92
9861;DHT22;4969;52.304;4.968;2022-07-23T09:08:15;19.68;60.64
9861;DHT22;4969;52.304;4.968;2022-07-23T09:10:50;19.69;60.10
9861;DHT22;4969;52.304;4.968;2022-07-23T09:13:32;19.69;60.76
9861;DHT22;4969;52.304;4.968;2022-07-23T09:16:01;19.85;60.88
9861;DHT22;4969;52.304;4.968;2022-07-23T09:18:33;19.82;60.62
9861;DHT22;4969;52.304;4.968;2022-07-23T09:21:22;19.87;60.28
9861;DHT22;4969;52.304;4.968;2022-07-23T09:23:56;19.92;60.79
9861;DHT22;4969;52.304;4.968;2022-07-23T09:26:28;20.10;61.66
9861;DHT22;4969;52.304;4.968;2022-07-23T09:29:11;20.75;60.58
9861;DHT22;4969;52.304;4.968;2022-07-23T09:31:49;20.95;60.08
9861;DHT22;4969;52.304;4.968;2022-07-23T09:34:19;21.59;57.85
9861;DHT22;4969;52.304;4.968;2022-07-23T09:36:50;21.81;57.21
9861;DHT22;4969;52.304;4.968;2022-07-23T09:39:25;21.99;56.74
9861;DHT22;4969;52.304;4.968;2022-07-23T09:41:52;21.64;57.20
9861;DHT22;4969;52.304;4.968;2022-07-23T09:44:20;21.69;57.74
9861;DHT22;4969;52.304;4.968;2022-07-23T09:46:47;22.03;56.75
9861;DHT22;4969;52.304;4.968;2022-07-23T09:49:17;22.10;56.99
9861;DHT22;4969;52.304;4.968;2022-07-23T09:51:49;22.37;55.77
9861;DHT22;4969;52.304;4.968;2022-07-23T09:54:28;22.45;55.29
9861;DHT22;4969;52.304;4.968;2022-07-23T09:56:57;22.30;55.63
9861;DHT22;4969;52.304;4.968;2022-07-23T09:59:28;22.45;55.46
9861;DHT22;4969;52.304;4.968;2022-07-23T10:01:56;21.83;54.78
9861;DHT22;4969;52.304;4.968;2022-07-23T10:04:25;21.88;56.72
9861;DHT22;4969;52.304;4.968;2022-07-23T10:06:55;21.95;56.31
9861;DHT22;4969;52.304;4.968;2022-07-23T10:09:24;22.26;55.76
9861;DHT22;4969;52.304;4.968;2022-07-23T10:11:53;22.57;55.09
9861;DHT22;4969;52.304;4.968;2022-07-23T10:14:23;22.71;54.65
9861;DHT22;4969;52.304;4.968;2022-07-23T10:16:50;22.47;53.81
9861;DHT22;4969;52.304;4.968;2022-07-23T10:19:19;21.65;54.64
9861;DHT22;4969;52.304;4.968;2022-07-23T10:21:48;22.24;55.63
9861;DHT22;4969;52.304;4.968;2022-07-23T10:24:30;22.33;54.14
9861;DHT22;4969;52.304;4.968;2022-07-23T10:27:19;21.91;54.75
9861;DHT22;4969;52.304;4.968;2022-07-23T10:29:51;22.58;54.77
9861;DHT22;4969;52.304;4.968;2022-07-23T10:32:26;22.67;54.53
9861;DHT22;4969;52.304;4.968;2022-07-23T10:35:07;23.09;53.70
9861;DHT22;4969;52.304;4.968;2022-07-23T10:37:40;23.04;53.74
9861;DHT22;4969;52.304;4.968;2022-07-23T10:40:14;22.88;54.17
9861;DHT22;4969;52.304;4.968;2022-07-23T10:42:43;22.82;53.96
9861;DHT22;4969;52.304;4.968;2022-07-23T10:45:28;22.71;54.55
9861;DHT22;4969;52.304;4.968;2022-07-23T10:47:56;22.61;53.68
9861;DHT22;4969;52.304;4.968;2022-07-23T10:50:38;22.60;54.94
9861;DHT22;4969;52.304;4.968;2022-07-23T10:53:09;23.03;53.93
9861;DHT22;4969;52.304;4.968;2022-07-23T10:55:42;23.29;53.26
9861;DHT22;4969;52.304;4.968;2022-07-23T10:58:21;23.22;53.59
9861;DHT22;4969;52.304;4.968;2022-07-23T11:00:51;23.24;53.49
9861;DHT22;4969;52.304;4.968;2022-07-23T11:03:29;23.48;53.65
9861;DHT22;4969;52.304;4.968;2022-07-23T11:06:00;23.48;52.81
9861;DHT22;4969;52.304;4.968;2022-07-23T11:08:32;23.48;52.97
9861;DHT22;4969;52.304;4.968;2022-07-23T11:11:11;23.54;53.13
9861;DHT22;4969;52.304;4.968;2022-07-23T11:13:47;23.61;53.36
9861;DHT22;4969;52.304;4.968;2022-07-23T11:16:20;23.58;52.85
9861;DHT22;4969;52.304;4.968;2022-07-23T11:18:55;23.69;52.70
9861;DHT22;4969;52.304;4.968;2022-07-23T11:21:45;23.57;52.98
9861;DHT22;4969;52.304;4.968;2022-07-23T11:24:23;23.65;53.05
9861;DHT22;4969;52.304;4.968;2022-07-23T11:26:55;23.73;53.28
9861;DHT22;4969;52.304;4.968;2022-07-23T11:29:46;24.01;51.25
9861;DHT22;4969;52.304;4.968;2022-07-23T11:32:32;24.10;51.13
9861;DHT22;4969;52.304;4.968;2022-07-23T11:35:01;23.96;51.57
9861;DHT22;4969;52.304;4.968;2022-07-23T11:37:32;23.89;52.19
9861;DHT22;4969;52.304;4.968;2022-07-23T11:39:59;23.86;51.68
9861;DHT22;4969;52.304;4.968;2022-07-23T11:42:28;24.30;50.68
9861;DHT22;4969;52.304;4.968;2022-07-23T11:44:57;24.23;50.85
9861;DHT22;4969;52.304;4.968;2022-07-23T11:47:25;24.26;50.89
9861;DHT22;4969;52.304;4.968;2022-07-23T11:49:52;23.91;52.75
9861;DHT22;4969;52.304;4.968;2022-07-23T11:52:22;23.73;53.56
9861;DHT22;4969;52.304;4.968;2022-07-23T11:54:51;23.23;54.40
9861;DHT22;4969;52.304;4.968;2022-07-23T11:57:21;22.76;55.81
9861;DHT22;4969;52.304;4.968;2022-07-23T11:59:53;22.82;55.87
9861;DHT22;4969;52.304;4.968;2022-07-23T12:02:21;22.96;55.19
9861;DHT22;4969;52.304;4.968;2022-07-23T12:04:51;23.04;55.64
9861;DHT22;4969;52.304;4.968;2022-07-23T12:07:26;23.15;55.38
9861;DHT22;4969;52.304;4.968;2022-07-23T12:09:53;23.00;54.38
9861;DHT22;4969;52.304;4.968;2022-07-23T12:12:21;22.92;55.33
9861;DHT22;4969;52.304;4.968;2022-07-23T12:14:49;23.06;55.03
9861;DHT22;4969;52.304;4.968;2022-07-23T12:17:17;23.18;54.43
9861;DHT22;4969;52.304;4.968;2022-07-23T12:19:44;23.19;53.72
9861;DHT22;4969;52.304;4.968;2022-07-23T12:22:12;23.26;54.19
9861;DHT22;4969;52.304;4.968;2022-07-23T12:24:52;23.54;53.63
9861;DHT22;4969;52.304;4.968;2022-07-23T12:27:23;23.73;53.23
9861;DHT22;4969;52.304;4.968;2022-07-23T12:29:52;23.99;52.29
9861;DHT22;4969;52.304;4.968;2022-07-23T12:32:22;24.16;51.72
9861;DHT22;4969;52.304;4.968;2022-07-23T12:34:53;24.13;52.21
9861;DHT22;4969;52.304;4.968;2022-07-23T12:37:29;24.33;51.56
9861;DHT22;4969;52.304;4.968;2022-07-23T12:39:56;24.30;51.30
9861;DHT22;4969;52.304;4.968;2022-07-23T12:42:23;24.24;50.85
9861;DHT22;4969;52.304;4.968;2022-07-23T12:45:08;24.33;50.76
9861;DHT22;4969;52.304;4.968;2022-07-23T12:48:00;24.39;50.91
9861;DHT22;4969;52.304;4.968;2022-07-23T12:50:40;24.50;49.38
9861;DHT22;4969;52.304;4.968;2022-07-23T12:53:09;24.50;50.91
9861;DHT22;4969;52.304;4.968;2022-07-23T12:55:38;24.61;50.82
9861;DHT22;4969;52.304;4.968;2022-07-23T12:58:06;24.58;50.81
9861;DHT22;4969;52.304;4.968;2022-07-23T13:00:58;24.64;50.47
9861;DHT22;4969;52.304;4.968;2022-07-23T13:03:32;24.67;50.58
9861;DHT22;4969;52.304;4.968;2022-07-23T13:06:00;24.72;50.61
9861;DHT22;4969;52.304;4.968;2022-07-23T13:08:29;24.72;50.48
9861;DHT22;4969;52.304;4.968;2022-07-23T13:10:56;24.74;51.27
9861;DHT22;4969;52.304;4.968;2022-07-23T13:13:24;24.86;51.31
9861;DHT22;4969;52.304;4.968;2022-07-23T13:15:51;24.92;50.81
9861;DHT22;4969;52.304;4.968;2022-07-23T13:18:19;25.09;50.74
9861;DHT22;4969;52.304;4.968;2022-07-23T13:20:48;25.08;49.88
9861;DHT22;4969;52.304;4.968;2022-07-23T13:23:16;25.15;49.46
9861;DHT22;4969;52.304;4.968;2022-07-23T13:25:43;25.22;49.94
9861;DHT22;4969;52.304;4.968;2022-07-23T13:28:10;25.24;50.12
9861;DHT22;4969;52.304;4.968;2022-07-23T13:30:37;25.40;49.45
9861;DHT22;4969;52.304;4.968;2022-07-23T13:33:04;25.39;48.60
9861;DHT22;4969;52.304;4.968;2022-07-23T13:35:31;25.37;49.69
9861;DHT22;4969;52.304;4.968;2022-07-23T13:37:59;25.40;49.27
9861;DHT22;4969;52.304;4.968;2022-07-23T13:40:26;25.47;48.28
9861;DHT22;4969;52.304;4.968;2022-07-23T13:42:52;25.50;48.68
9861;DHT22;4969;52.304;4.968;2022-07-23T13:45:19;25.41;47.08
9861;DHT22;4969;52.304;4.968;2022-07-23T13:47:46;25.39;47.46
9861;DHT22;4969;52.304;4.968;2022-07-23T13:50:13;25.56;48.50
9861;DHT22;4969;52.304;4.968;2022-07-23T13:52:41;25.56;48.79
9861;DHT22;4969;52.304;4.968;2022-07-23T13:55:09;25.75;48.89
9861;DHT22;4969;52.304;4.968;2022-07-23T13:57:39;25.66;48.02
9861;DHT22;4969;52.304;4.968;2022-07-23T14:00:10;25.77;49.79
9861;DHT22;4969;52.304;4.968;2022-07-23T14:02:38;25.92;49.91
9861;DHT22;4969;52.304;4.968;2022-07-23T14:05:05;25.89;48.64
9861;DHT22;4969;52.304;4.968;2022-07-23T14:07:36;25.95;48.70
9861;DHT22;4969;52.304;4.968;2022-07-23T14:10:04;25.95;46.97
9861;DHT22;4969;52.304;4.968;2022-07-23T14:12:37;25.85;47.43
9861;DHT22;4969;52.304;4.968;2022-07-23T14:15:09;25.84;50.21
9861;DHT22;4969;52.304;4.968;2022-07-23T14:17:36;25.84;48.50
9861;DHT22;4969;52.304;4.968;2022-07-23T14:20:05;25.86;47.73
9861;DHT22;4969;52.304;4.968;2022-07-23T14:22:35;25.96;49.58
9861;DHT22;4969;52.304;4.968;2022-07-23T14:25:03;26.02;47.05
9861;DHT22;4969;52.304;4.968;2022-07-23T14:27:30;26.01;47.47
9861;DHT22;4969;52.304;4.968;2022-07-23T14:29:58;26.08;50.23
9861;DHT22;4969;52.304;4.968;2022-07-23T14:32:26;26.08;47.36
9861;DHT22;4969;52.304;4.968;2022-07-23T14:34:52;26.09;49.46
9861;DHT22;4969;52.304;4.968;2022-07-23T14:37:19;26.26;50.31
9861;DHT22;4969;52.304;4.968;2022-07-23T14:39:46;26.33;50.21
9861;DHT22;4969;52.304;4.968;2022-07-23T14:42:13;26.40;49.79
9861;DHT22;4969;52.304;4.968;2022-07-23T14:44:40;26.35;50.13
9861;DHT22;4969;52.304;4.968;2022-07-23T14:47:09;26.46;50.09
9861;DHT22;4969;52.304;4.968;2022-07-23T14:49:35;26.49;50.16
9861;DHT22;4969;52.304;4.968;2022-07-23T14:52:03;26.44;49.03
9861;DHT22;4969;52.304;4.968;2022-07-23T14:54:30;26.39;50.01
9861;DHT22;4969;52.304;4.968;2022-07-23T14:56:58;26.47;50.13
9861;DHT22;4969;52.304;4.968;2022-07-23T14:59:24;26.51;50.15
9861;DHT22;4969;52.304;4.968;2022-07-23T15:01:53;26.47;46.82
9861;DHT22;4969;52.304;4.968;2022-07-23T15:04:21;26.43;49.98
9861;DHT22;4969;52.304;4.968;2022-07-23T15:06:48;26.53;47.33
9861;DHT22;4969;52.304;4.968;2022-07-23T15:09:14;26.43;46.79
9861;DHT22;4969;52.304;4.968;2022-07-23T15:11:42;26.39;49.41
9861;DHT22;4969;52.304;4.968;2022-07-23T15:14:08;26.36;49.51
9861;DHT22;4969;52.304;4.968;2022-07-23T15:16:38;26.43;46.43
9861;DHT22;4969;52.304;4.968;2022-07-23T15:19:04;26.35;47.82
9861;DHT22;4969;52.304;4.968;2022-07-23T15:21:32;26.25;47.44
9861;DHT22;4969;52.304;4.968;2022-07-23T15:23:59;26.10;45.78
9861;DHT22;4969;52.304;4.968;2022-07-23T15:26:26;26.03;47.05
9861;DHT22;4969;52.304;4.968;2022-07-23T15:28:53;25.98;46.12
9861;DHT22;4969;52.304;4.968;2022-07-23T15:31:20;25.99;46.76
9861;DHT22;4969;52.304;4.968;2022-07-23T15:33:49;25.94;46.03
9861;DHT22;4969;52.304;4.968;2022-07-23T15:36:20;25.91;46.17
9861;DHT22;4969;52.304;4.968;2022-07-23T15:38:48;25.98;47.87
9861;DHT22;4969;52.304;4.968;2022-07-23T15:41:16;26.06;48.03
9861;DHT22;4969;52.304;4.968;2022-07-23T15:43:43;26.08;47.41
9861;DHT22;4969;52.304;4.968;2022-07-23T15:46:10;26.13;47.14
9861;DHT22;4969;52.304;4.968;2022-07-23T15:48:38;26.01;46.15
9861;DHT22;4969;52.304;4.968;2022-07-23T15:51:05;25.91;46.83
9861;DHT22;4969;52.304;4.968;2022-07-23T15:53:32;25.91;48.05
9861;DHT22;4969;52.304;4.968;2022-07-23T15:56:00;25.91;46.56
9861;DHT22;4969;52.304;4.968;2022-07-23T15:58:27;25.94;48.33
9861;DHT22;4969;52.304;4.968;2022-07-23T16:00:54;26.01;46.91
9861;DHT22;4969;52.304;4.968;2022-07-23T16:03:21;26.09;48.50
9861;DHT22;4969;52.304;4.968;2022-07-23T16:05:48;26.09;46.91
9861;DHT22;4969;52.304;4.968;2022-07-23T16:08:14;26.18;48.80
9861;DHT22;4969;52.304;4.968;2022-07-23T16:10:41;26.21;48.51